sensor_id;sensor_type;location;lat;lon;timestamp;temperature;humidity
19580;DHT22;9936;51.040;13.918;2023-01-15T06:01:44;8.20;99.90
19580;DHT22;9936;51.040;13.918;2023-01-15T06:05:50;8.20;99.90
19580;DHT22;9936;51.040;13.918;2023-01-15T06:09:39;8.20;99.90
19580;DHT22;9936;51.040;13.918;2023-01-15T06:13:25;8.20;99.90
19580;DHT22;9936;51.040;13.918;2023-01-15T06:17:10;8.20;99.90
19580;DHT22;9936;51.040;13.918;2023-01-15T06:20:56;8.20;99.90
19580;DHT22;9936;51.040;13.918;2023-01-15T06:24:42;8.20;99.90
19580;DHT22;9936;51.040;13.918;2023-01-15T06:28:27;8.20;99.90
19580;DHT22;9936;51.040;13.918;2023-01-15T06:32:13;8.30;99.90
19580;DHT22;9936;51.040;13.918;2023-01-15T06:36:04;8.30;99.90
19580;DHT22;9936;51.040;13.918;2023-01-15T06:48:20;8.30;99.90
19580;DHT22;9936;51.040;13.918;2023-01-15T06:52:06;8.30;99.90
19580;DHT22;9936;51.040;13.918;2023-01-15T06:55:52;8.30;99.90
19580;DHT22;9936;51.040;13.918;2023-01-15T08:37:57;7.20;99.90
19580;DHT22;9936;51.040;13.918;2023-01-15T08:41:43;7.30;99.90
19580;DHT22;9936;51.040;13.918;2023-01-15T08:45:28;7.20;99.90
19580;DHT22;9936;51.040;13.918;2023-01-15T12:49:30;5.90;99.90
19580;DHT22;9936;51.040;13.918;2023-01-15T12:57:22;5.80;99.90
19580;DHT22;9936;51.040;13.918;2023-01-15T13:01:14;5.90;99.90
19580;DHT22;9936;51.040;13.918;2023-01-15T13:49:47;6.10;99.90
19580;DHT22;9936;51.040;13.918;2023-01-15T13:53:56;6.00;99.90
19580;DHT22;9936;51.040;13.918;2023-01-15T13:57:43;6.10;99.90
19580;DHT22;9936;51.040;13.918;2023-01-15T14:14:30;6.10;99.90
19580;DHT22;9936;51.040;13.918;2023-01-15T14:34:43;6.00;99.90
19580;DHT22;9936;51.040;13.918;2023-01-15T14:38:28;6.10;99.90
19580;DHT22;9936;51.040;13.918;2023-01-15T14:46:28;6.10;99.90
19580;DHT22;9936;51.040;13.918;2023-01-15T14:54:08;5.80;99.90
19580;DHT22;9936;51.040;13.918;2023-01-15T14:58:05;5.80;99.90
19580;DHT22;9936;51.040;13.918;2023-01-15T15:02:00;5.70;99.90
19580;DHT22;9936;51.040;13.918;2023-01-15T15:05:46;5.60;99.90
19580;DHT22;9936;51.040;13.918;2023-01-15T15:13:56;5.60;99.90
19580;DHT22;9936;51.040;13.918;2023-01-15T15:21:58;5.60;99.90
19580;DHT22;9936;51.040;13.918;2023-01-15T15:26:00;5.60;99.90
19580;DHT22;9936;51.040;13.918;2023-01-15T15:29:47;5.60;99.90
19580;DHT22;9936;51.040;13.918;2023-01-15T15:33:38;5.60;99.90
19580;DHT22;9936;51.040;13.918;2023-01-15T15:37:26;5.50;99.90
19580;DHT22;9936;51.040;13.918;2023-01-15T15:41:12;5.60;99.90
19580;DHT22;9936;51.040;13.918;2023-01-15T15:44:58;5.50;99.90
19580;DHT22;9936;51.040;13.918;2023-01-15T15:49:03;5.50;99.90
19580;DHT22;9936;51.040;13.918;2023-01-15T15:52:50;5.30;99.90
19580;DHT22;9936;51.040;13.918;2023-01-15T15:56:39;5.40;99.90
19580;DHT22;9936;51.040;13.918;2023-01-15T16:00:32;5.50;99.90
19580;DHT22;9936;51.040;13.918;2023-01-15T16:04:19;5.30;99.90
19580;DHT22;9936;51.040;13.918;2023-01-15T16:08:17;5.30;99.90
19580;DHT22;9936;51.040;13.918;2023-01-15T16:12:03;5.30;99.90
19580;DHT22;9936;51.040;13.918;2023-01-15T16:15:52;5.20;99.90
19580;DHT22;9936;51.040;13.918;2023-01-15T16:19:39;5.30;99.90
19580;DHT22;9936;51.040;13.918;2023-01-15T16:23:26;5.40;99.90
19580;DHT22;9936;51.040;13.918;2023-01-15T16:27:13;5.40;99.90
19580;DHT22;9936;51.040;13.918;2023-01-15T16:31:06;5.60;99.90
19580;DHT22;9936;51.040;13.918;2023-01-15T16:35:13;5.60;99.90
19580;DHT22;9936;51.040;13.918;2023-01-15T16:39:00;5.70;99.10
19580;DHT22;9936;51.040;13.918;2023-01-15T16:42:46;5.50;99.30
19580;DHT22;9936;51.040;13.918;2023-01-15T16:46:37;5.50;99.60
19580;DHT22;9936;51.040;13.918;2023-01-15T16:58:15;5.40;99.90
19580;DHT22;9936;51.040;13.918;2023-01-15T17:05:55;5.50;99.90
19580;DHT22;9936;51.040;13.918;2023-01-15T17:09:51;5.50;99.90
19580;DHT22;9936;51.040;13.918;2023-01-15T17:13:38;5.40;99.90
19580;DHT22;9936;51.040;13.918;2023-01-15T17:17:26;5.40;99.90
19580;DHT22;9936;51.040;13.918;2023-01-15T17:21:21;5.30;99.90
19580;DHT22;9936;51.040;13.918;2023-01-15T17:25:25;5.20;99.90
19580;DHT22;9936;51.040;13.918;2023-01-15T17:29:11;5.20;99.90
19580;DHT22;9936;51.040;13.918;2023-01-15T17:33:02;5.20;99.80
19580;DHT22;9936;51.040;13.918;2023-01-15T17:36:49;5.00;99.90
19580;DHT22;9936;51.040;13.918;2023-01-15T17:40:35;5.00;99.90
19580;DHT22;9936;51.040;13.918;2023-01-15T17:44:20;4.90;99.90
19580;DHT22;9936;51.040;13.918;2023-01-15T17:48:08;4.90;99.90
19580;DHT22;9936;51.040;13.918;2023-01-15T17:51:54;4.90;99.90
19580;DHT22;9936;51.040;13.918;2023-01-15T17:55:39;4.70;99.90
19580;DHT22;9936;51.040;13.918;2023-01-15T17:59:44;4.90;99.90
19580;DHT22;9936;51.040;13.918;2023-01-15T18:03:52;4.90;99.90
19580;DHT22;9936;51.040;13.918;2023-01-15T18:08:04;4.90;99.90
19580;DHT22;9936;51.040;13.918;2023-01-15T18:11:50;5.00;99.90
19580;DHT22;9936;51.040;13.918;2023-01-15T18:15:35;4.90;99.50
19580;DHT22;9936;51.040;13.918;2023-01-15T18:19:21;4.70;99.70
19580;DHT22;9936;51.040;13.918;2023-01-15T18:23:07;4.80;99.90
19580;DHT22;9936;51.040;13.918;2023-01-15T18:26:52;4.90;99.90
19580;DHT22;9936;51.040;13.918;2023-01-15T18:30:41;4.80;99.90
19580;DHT22;9936;51.040;13.918;2023-01-15T18:34:28;4.80;99.90
19580;DHT22;9936;51.040;13.918;2023-01-15T18:38:14;4.70;99.70
19580;DHT22;9936;51.040;13.918;2023-01-15T18:41:59;4.70;99.40
19580;DHT22;9936;51.040;13.918;2023-01-15T18:45:46;4.80;99.90
19580;DHT22;9936;51.040;13.918;2023-01-15T18:49:51;4.80;99.90
19580;DHT22;9936;51.040;13.918;2023-01-15T18:53:41;4.80;99.20
19580;DHT22;9936;51.040;13.918;2023-01-15T18:57:26;4.80;99.40
19580;DHT22;9936;51.040;13.918;2023-01-15T19:01:12;4.80;99.20
19580;DHT22;9936;51.040;13.918;2023-01-15T19:04:58;4.80;99.50
19580;DHT22;9936;51.040;13.918;2023-01-15T19:13:26;4.70;98.80
19580;DHT22;9936;51.040;13.918;2023-01-15T19:17:20;4.70;99.50
19580;DHT22;9936;51.040;13.918;2023-01-15T19:21:25;4.60;99.50
19580;DHT22;9936;51.040;13.918;2023-01-15T19:25:10;4.80;99.90
19580;DHT22;9936;51.040;13.918;2023-01-15T21:51:14;4.60;98.70
19580;DHT22;9936;51.040;13.918;2023-01-15T21:55:00;4.50;98.90
19580;DHT22;9936;51.040;13.918;2023-01-15T23:00:55;4.50;99.90
19580;DHT22;9936;51.040;13.918;2023-01-15T23:04:41;4.60;99.90
19580;DHT22;9936;51.040;13.918;2023-01-15T23:08:27;4.60;99.90
19580;DHT22;9936;51.040;13.918;2023-01-15T23:12:16;4.70;99.90
